createdAt,value
2023-02-25T00:00:02.949Z,998.3
2023-02-25T00:15:02.410Z,998.2
2023-02-25T00:30:02.813Z,998.2
2023-02-25T00:45:03.325Z,998.1
2023-02-25T01:00:02.677Z,998.4
2023-02-25T01:15:03.335Z,998.5
2023-02-25T01:30:02.570Z,998.6
2023-02-25T01:45:02.986Z,999.0
2023-02-25T02:00:02.448Z,998.8
2023-02-25T02:15:02.901Z,998.8
2023-02-25T02:30:02.377Z,998.7
2023-02-25T02:45:02.766Z,998.8
2023-02-25T03:00:03.353Z,999.0
2023-02-25T03:15:02.643Z,999.0
2023-02-25T03:30:02.080Z,999.1
2023-02-25T03:45:02.529Z,999.3
2023-02-25T04:00:02.940Z,999.8
2023-02-25T04:15:02.397Z,999.6
2023-02-25T04:30:02.838Z,999.7
2023-02-25T04:45:02.381Z,1000.0
2023-02-25T05:00:02.699Z,1000.0
2023-02-25T05:15:03.371Z,999.8
2023-02-25T05:30:03.658Z,1000.0
2023-02-25T05:45:03.016Z,1000.1
2023-02-25T06:00:02.432Z,1000.3
2023-02-25T06:15:02.903Z,1000.3
2023-02-25T06:30:02.401Z,1000.6
2023-02-25T06:45:02.744Z,1001.0
2023-02-25T07:00:03.394Z,1001.2
2023-02-25T07:15:02.634Z,1001.3
2023-02-25T07:30:03.076Z,1001.6
2023-02-25T07:45:02.505Z,1001.7
2023-02-25T08:00:02.954Z,1001.7
2023-02-25T08:15:02.471Z,1001.8
2023-02-25T08:30:02.815Z,1001.9
2023-02-25T08:45:02.440Z,1002.1
2023-02-25T09:00:05.557Z,1002.1
2023-02-25T09:15:02.141Z,1002.4
2023-02-25T09:30:02.587Z,1002.7
2023-02-25T09:45:03.021Z,1002.8
2023-02-25T10:00:02.452Z,1003.0
2023-02-25T10:15:02.921Z,1003.4
2023-02-25T10:30:02.451Z,1003.7
2023-02-25T10:45:02.782Z,1003.9
2023-02-25T11:00:03.448Z,1004.1
2023-02-25T11:15:02.763Z,1004.0
2023-02-25T11:30:02.047Z,1004.2
2023-02-25T11:45:02.514Z,1004.3
2023-02-25T12:00:02.966Z,1004.6
2023-02-25T12:15:02.454Z,1004.6
2023-02-25T12:30:02.853Z,1004.7
2023-02-25T12:45:02.461Z,1004.8
2023-02-25T13:00:02.738Z,1004.8
2023-02-25T13:15:03.189Z,1005.2
2023-02-25T13:30:02.595Z,1005.3
2023-02-25T13:45:03.040Z,1005.5
2023-02-25T14:00:02.484Z,1005.5
2023-02-25T14:15:02.900Z,1005.6
2023-02-25T14:30:02.469Z,1006.0
2023-02-25T14:45:02.802Z,1006.3
2023-02-25T15:00:03.405Z,1006.5
2023-02-25T15:15:02.687Z,1006.7
2023-02-25T15:30:03.121Z,1006.9
2023-02-25T15:45:02.561Z,1007.1
2023-02-25T16:00:03.126Z,1007.4
2023-02-25T16:15:02.522Z,1007.5
2023-02-25T16:30:02.907Z,1007.9
2023-02-25T16:45:02.517Z,1008.0
2023-02-25T17:00:02.779Z,1008.3
2023-02-25T17:15:03.209Z,1008.4
2023-02-25T17:30:02.646Z,1008.4
2023-02-25T17:45:03.070Z,1008.5
2023-02-25T18:00:02.529Z,1008.7
2023-02-25T18:15:02.958Z,1008.9
2023-02-25T18:30:02.521Z,1008.9
2023-02-25T18:45:02.837Z,1009.3
2023-02-25T19:00:02.289Z,1009.6
2023-02-25T19:15:02.723Z,1010.1
2023-02-25T19:30:03.186Z,1009.9
2023-02-25T19:45:02.586Z,1009.9
2023-02-25T20:00:03.064Z,1010.1
2023-02-25T20:15:02.548Z,1010.2
2023-02-25T20:30:02.971Z,1010.3
2023-02-25T20:45:02.552Z,1010.3
2023-02-25T21:00:02.774Z,1010.4
2023-02-25T21:15:03.278Z,1010.6
2023-02-25T21:30:02.686Z,1010.8
2023-02-25T21:45:03.094Z,1010.9
2023-02-25T22:00:02.547Z,1011.1
2023-02-25T22:15:02.963Z,1011.2
2023-02-25T22:30:02.564Z,1011.2
2023-02-25T22:45:02.852Z,1011.2
2023-02-25T23:00:02.320Z,1011.6
2023-02-25T23:15:02.726Z,1011.7
2023-02-25T23:30:03.173Z,1011.8
2023-02-25T23:45:02.629Z,1012.0
